Inverness, Florida
Current Conditions -  °F | °C
As of 10:15 AM on Thursday 23 Oct 2014 (Local Time) from KINF Reporting Station
Clear Clear  
Wind Chill: 68°   Ceiling: Unl
Heat Index: 68°   Visibility: 10mi
Dew Point: 52°   Wind: 7mph
Humidity: 56%   Direction: 30°NNE
Pressure: 30.05"   Gusts: NA
Location:  28.84°N, 82.33°W
Report Text: KINF 231415Z AUTO 03006KT 10SM CLR 20/11 A3005 RMK AO2
Loading
Personal Weather Stations






























Interactive Weather Map
Tropical Storm Tracking
New forecast layout! Learn more

10-Day Weather Forecast

Advertisements
Track Severe Weather on mobile